createdAt,value
2023-04-30T00:00:41.217Z,34.72
2023-04-30T00:01:44.077Z,35.72
2023-04-30T00:02:48.051Z,28.95
2023-04-30T00:03:50.934Z,30.77
2023-04-30T00:04:53.815Z,35.28
2023-04-30T00:05:56.795Z,36.30
2023-04-30T00:07:01.470Z,34.53
2023-04-30T00:08:04.243Z,35.05
2023-04-30T00:09:08.175Z,29.00
2023-04-30T00:10:11.473Z,33.90
2023-04-30T00:11:13.237Z,31.65
2023-04-30T00:12:16.037Z,32.50
2023-04-30T00:13:18.917Z,34.78
2023-04-30T00:14:21.244Z,34.47
2023-04-30T00:15:23.637Z,30.08
2023-04-30T00:16:26.234Z,34.65
2023-04-30T00:17:29.048Z,32.88
2023-04-30T00:18:31.545Z,37.45
2023-04-30T00:19:33.904Z,34.05
2023-04-30T00:20:37.225Z,41.00
2023-04-30T00:21:39.862Z,32.42
2023-04-30T00:22:46.934Z,31.30
2023-04-30T00:23:49.321Z,34.60
2023-04-30T00:24:53.370Z,35.67
2023-04-30T00:25:56.270Z,33.70
2023-04-30T00:26:59.184Z,38.17
2023-04-30T00:28:01.818Z,30.67
2023-04-30T00:29:05.171Z,34.00
2023-04-30T00:30:08.560Z,36.35
2023-04-30T00:31:11.448Z,32.00
2023-04-30T00:32:14.572Z,29.48
2023-04-30T00:33:17.992Z,32.85
2023-04-30T00:34:21.002Z,37.15
2023-04-30T00:35:23.793Z,33.42
2023-04-30T00:36:27.047Z,30.58
2023-04-30T00:37:34.682Z,36.58
2023-04-30T00:38:37.655Z,39.85
2023-04-30T00:39:40.927Z,30.50
2023-04-30T00:40:44.494Z,36.03
2023-04-30T00:41:47.606Z,31.02
2023-04-30T00:42:56.058Z,31.88
2023-04-30T00:43:59.049Z,39.00
2023-04-30T00:45:05.931Z,33.53
2023-04-30T00:46:11.056Z,32.92
2023-04-30T00:47:18.981Z,35.72
2023-04-30T00:48:22.028Z,39.05
2023-04-30T00:49:25.177Z,36.90
2023-04-30T00:50:29.022Z,37.97
2023-04-30T00:51:33.388Z,40.75
2023-04-30T00:53:27.830Z,40.67
2023-04-30T00:54:32.046Z,34.97
2023-04-30T00:55:34.770Z,35.85
2023-04-30T00:56:37.971Z,41.45
2023-04-30T00:58:07.846Z,39.58
2023-04-30T00:59:12.206Z,38.25
2023-04-30T01:00:16.097Z,36.10
2023-04-30T01:01:19.528Z,39.78
2023-04-30T01:02:55.308Z,40.20
2023-04-30T01:03:58.443Z,38.13
2023-04-30T01:05:01.617Z,40.63
2023-04-30T01:06:06.396Z,40.53
2023-04-30T01:07:10.996Z,42.25
2023-04-30T01:08:13.811Z,40.35
2023-04-30T01:09:17.240Z,47.60
2023-04-30T01:10:31.182Z,47.88
2023-04-30T01:12:14.976Z,44.83
2023-04-30T01:13:30.289Z,38.33
2023-04-30T01:14:52.188Z,41.95
2023-04-30T01:16:00.881Z,42.63
2023-04-30T01:17:13.859Z,42.67
2023-04-30T01:18:42.368Z,43.63
2023-04-30T01:19:46.599Z,43.72
2023-04-30T01:20:54.713Z,44.53
2023-04-30T01:22:01.779Z,45.15
2023-04-30T01:23:42.324Z,45.53
2023-04-30T01:25:15.543Z,43.03
2023-04-30T01:26:47.530Z,46.97
2023-04-30T01:28:08.477Z,39.15
2023-04-30T01:29:14.639Z,44.53
2023-04-30T01:30:19.481Z,45.15
2023-04-30T01:31:24.639Z,41.30
2023-04-30T01:32:29.386Z,42.22
2023-04-30T01:33:32.532Z,48.95
2023-04-30T01:34:35.285Z,45.95
2023-04-30T01:35:53.798Z,52.53
2023-04-30T01:37:22.731Z,58.20
2023-04-30T01:38:49.670Z,70.50
2023-04-30T01:40:10.092Z,63.78
2023-04-30T01:41:41.487Z,61.75
2023-04-30T01:43:11.291Z,56.15
2023-04-30T01:44:43.348Z,67.13
2023-04-30T01:46:07.185Z,65.38
2023-04-30T01:47:20.542Z,60.92
2023-04-30T01:48:44.924Z,56.67
2023-04-30T01:50:03.779Z,55.83
2023-04-30T01:51:47.341Z,58.80
2023-04-30T01:52:57.349Z,54.35
2023-04-30T01:54:06.299Z,58.88
2023-04-30T01:55:14.233Z,55.70
2023-04-30T01:56:24.128Z,59.80
2023-04-30T01:57:35.011Z,48.97
2023-04-30T01:58:40.786Z,55.53
2023-04-30T01:59:44.437Z,50.65
2023-04-30T02:00:47.148Z,57.28
2023-04-30T02:01:50.423Z,55.42
2023-04-30T02:02:56.579Z,55.80
2023-04-30T02:04:00.276Z,49.63
2023-04-30T02:05:04.600Z,57.80
2023-04-30T02:06:08.680Z,45.63
2023-04-30T02:07:30.343Z,49.88
2023-04-30T02:08:33.594Z,51.30
2023-04-30T02:09:38.595Z,51.85
2023-04-30T02:10:41.814Z,59.05
2023-04-30T02:11:45.513Z,49.78
2023-04-30T02:12:51.526Z,50.17
2023-04-30T02:13:54.199Z,57.28
2023-04-30T02:14:57.601Z,49.05
2023-04-30T02:16:00.259Z,48.58
2023-04-30T02:17:02.412Z,56.92
2023-04-30T02:18:04.985Z,51.75
2023-04-30T02:19:07.470Z,54.28
2023-04-30T02:20:11.707Z,50.65
2023-04-30T02:21:14.587Z,50.60
2023-04-30T02:22:17.881Z,52.97
2023-04-30T02:23:22.096Z,50.05
2023-04-30T02:24:25.412Z,54.47
2023-04-30T02:25:30.487Z,46.97
2023-04-30T02:26:33.993Z,48.95
2023-04-30T02:28:27.094Z,47.63
2023-04-30T02:29:31.002Z,44.47
2023-04-30T02:30:35.211Z,42.75
2023-04-30T02:31:38.547Z,41.65
2023-04-30T02:32:46.049Z,48.30
2023-04-30T02:33:51.713Z,40.80
2023-04-30T02:34:56.381Z,42.10
2023-04-30T02:36:01.059Z,43.30
2023-04-30T02:37:04.349Z,46.75
2023-04-30T02:38:12.166Z,42.53
2023-04-30T02:39:16.084Z,43.58
2023-04-30T02:40:20.987Z,38.30
2023-04-30T02:41:24.490Z,39.42
2023-04-30T02:42:55.230Z,45.63
2023-04-30T02:43:58.247Z,43.50
2023-04-30T02:45:01.125Z,38.78
2023-04-30T02:46:06.987Z,47.95
2023-04-30T02:47:09.972Z,43.92
2023-04-30T02:48:43.880Z,46.17
2023-04-30T02:49:46.764Z,37.85
2023-04-30T02:50:49.924Z,40.13
2023-04-30T02:51:52.807Z,43.30
2023-04-30T02:53:01.048Z,39.25
2023-04-30T02:54:03.785Z,44.13
2023-04-30T02:55:07.449Z,42.33
2023-04-30T02:56:11.646Z,46.95
2023-04-30T02:57:14.719Z,41.35
2023-04-30T02:58:20.280Z,39.30
2023-04-30T02:59:24.208Z,43.38
2023-04-30T03:00:27.269Z,40.92
2023-04-30T03:01:30.181Z,38.13
2023-04-30T03:02:35.155Z,44.72
2023-04-30T03:03:38.188Z,44.65
2023-04-30T03:04:42.362Z,39.70
2023-04-30T03:05:45.621Z,45.00
2023-04-30T03:06:48.379Z,41.17
2023-04-30T03:07:54.065Z,37.70
2023-04-30T03:08:57.206Z,37.55
2023-04-30T03:10:01.212Z,42.90
2023-04-30T03:11:04.222Z,42.10
2023-04-30T03:12:07.034Z,39.15
2023-04-30T03:13:12.001Z,44.80
2023-04-30T03:14:16.841Z,40.58
2023-04-30T03:15:19.491Z,37.50
2023-04-30T03:16:22.975Z,43.53
2023-04-30T03:17:26.670Z,47.47
2023-04-30T03:18:31.511Z,48.08
2023-04-30T03:19:34.546Z,43.28
2023-04-30T03:20:40.265Z,53.90
2023-04-30T03:21:43.217Z,51.92
2023-04-30T03:22:50.823Z,49.42
2023-04-30T03:23:53.520Z,46.30
2023-04-30T03:24:56.486Z,49.00
2023-04-30T03:25:59.964Z,51.00
2023-04-30T03:27:03.823Z,48.63
2023-04-30T03:28:09.089Z,45.22
2023-04-30T03:29:12.432Z,53.05
2023-04-30T03:30:16.500Z,45.90
2023-04-30T03:31:19.625Z,54.67
2023-04-30T03:32:24.815Z,47.47
2023-04-30T03:33:33.383Z,52.08
2023-04-30T03:34:36.532Z,53.00
2023-04-30T03:35:39.388Z,47.25
2023-04-30T03:36:44.503Z,52.45
2023-04-30T03:38:18.066Z,51.80
2023-04-30T03:39:21.051Z,48.78
2023-04-30T03:40:26.011Z,54.28
2023-04-30T03:41:29.132Z,51.05
2023-04-30T03:42:31.728Z,54.92
2023-04-30T03:43:34.958Z,52.60
2023-04-30T03:44:39.136Z,52.20
2023-04-30T03:45:42.615Z,47.30
2023-04-30T03:46:45.868Z,45.05
2023-04-30T03:54:04.333Z,46.42
2023-04-30T03:55:07.875Z,46.45
2023-04-30T03:56:18.732Z,39.40
2023-04-30T03:57:23.084Z,38.30
2023-04-30T03:58:56.982Z,37.05
2023-04-30T04:00:02.282Z,34.22
2023-04-30T04:01:07.128Z,34.38
2023-04-30T04:02:11.110Z,33.85
2023-04-30T04:03:42.666Z,42.13
2023-04-30T04:04:45.690Z,37.05
2023-04-30T04:05:49.056Z,35.20
2023-04-30T04:06:51.911Z,39.70
2023-04-30T04:10:40.588Z,37.03
2023-04-30T04:11:46.165Z,40.03
2023-04-30T04:12:52.107Z,41.20
2023-04-30T04:13:56.035Z,39.83
2023-04-30T04:14:58.726Z,34.75
2023-04-30T04:16:03.797Z,36.15
2023-04-30T04:17:07.775Z,40.95
2023-04-30T04:21:38.155Z,34.28
2023-04-30T04:25:46.730Z,40.22
2023-04-30T04:26:49.406Z,42.03
2023-04-30T04:27:54.865Z,36.30
2023-04-30T04:28:57.954Z,41.03
2023-04-30T04:30:00.764Z,31.27
2023-04-30T04:31:03.773Z,33.83
2023-04-30T04:32:06.935Z,30.08
2023-04-30T04:33:15.044Z,33.17
2023-04-30T04:34:20.515Z,36.30
2023-04-30T04:35:22.947Z,32.72
2023-04-30T04:36:27.730Z,32.53
2023-04-30T04:37:32.373Z,32.22
2023-04-30T04:39:02.500Z,33.88
2023-04-30T04:40:06.423Z,32.05
2023-04-30T04:41:09.195Z,32.53
2023-04-30T04:42:12.633Z,29.63
2023-04-30T04:43:45.051Z,30.73
2023-04-30T04:44:48.909Z,31.33
2023-04-30T04:45:55.936Z,33.03
2023-04-30T04:46:58.951Z,29.65
2023-04-30T04:48:02.939Z,32.75
2023-04-30T04:49:05.860Z,31.67
2023-04-30T04:50:11.202Z,33.97
2023-04-30T04:51:13.711Z,35.13
2023-04-30T04:52:16.319Z,33.83
2023-04-30T04:53:21.356Z,30.20
2023-04-30T04:54:24.004Z,36.88
2023-04-30T04:55:26.760Z,37.53
2023-04-30T04:56:29.142Z,32.58
2023-04-30T04:57:36.908Z,35.53
2023-04-30T04:58:43.435Z,35.72
2023-04-30T04:59:46.170Z,35.92
2023-04-30T05:00:48.401Z,35.95
2023-04-30T05:01:51.067Z,34.38
2023-04-30T05:02:53.700Z,42.47
2023-04-30T05:03:57.969Z,35.67
2023-04-30T05:06:42.802Z,32.58
2023-04-30T05:07:45.369Z,30.77
2023-04-30T05:09:16.908Z,30.38
2023-04-30T05:10:19.236Z,27.20
2023-04-30T05:11:23.227Z,30.17
2023-04-30T05:12:27.250Z,28.65
2023-04-30T05:15:08.404Z,25.42
2023-04-30T05:16:10.728Z,26.77
2023-04-30T05:17:13.148Z,24.95
2023-04-30T05:18:15.232Z,27.25
2023-04-30T05:19:17.336Z,23.88
2023-04-30T05:20:19.184Z,20.20
2023-04-30T05:21:21.083Z,20.77
2023-04-30T05:22:23.131Z,23.40
2023-04-30T05:23:25.063Z,24.63
2023-04-30T05:24:28.295Z,22.77
2023-04-30T05:25:30.506Z,20.85
2023-04-30T05:26:32.548Z,18.80
2023-04-30T05:27:34.450Z,22.33
2023-04-30T05:28:36.530Z,20.92
2023-04-30T05:29:38.807Z,18.90
2023-04-30T05:30:40.739Z,16.33
2023-04-30T05:31:42.624Z,22.73
2023-04-30T05:32:50.829Z,13.73
2023-04-30T05:33:53.164Z,19.92
2023-04-30T05:34:55.746Z,16.58
2023-04-30T05:35:57.648Z,17.65
2023-04-30T05:36:59.573Z,19.88
2023-04-30T05:38:03.139Z,19.75
2023-04-30T05:39:05.073Z,18.98
2023-04-30T05:40:07.549Z,20.33
2023-04-30T05:41:12.542Z,21.25
2023-04-30T05:42:14.662Z,18.20
2023-04-30T05:43:16.996Z,22.42
2023-04-30T05:44:18.903Z,17.13
2023-04-30T05:45:20.881Z,15.85
2023-04-30T05:46:22.912Z,19.10
2023-04-30T05:47:24.978Z,17.90
2023-04-30T05:48:27.611Z,19.98
2023-04-30T05:49:29.534Z,20.63
2023-04-30T05:50:31.675Z,22.83
2023-04-30T05:51:33.647Z,21.25
2023-04-30T05:52:35.784Z,20.65
2023-04-30T05:53:37.963Z,20.67
2023-04-30T05:54:39.719Z,20.73
2023-04-30T05:55:42.330Z,22.95
2023-04-30T05:56:44.349Z,19.98
2023-04-30T05:57:46.512Z,21.58
2023-04-30T05:58:48.810Z,18.35
2023-04-30T05:59:50.731Z,22.58
2023-04-30T06:00:53.562Z,21.88
2023-04-30T06:01:55.653Z,22.48
2023-04-30T06:02:57.495Z,21.85
2023-04-30T06:04:01.340Z,18.38
2023-04-30T06:05:03.698Z,23.88
2023-04-30T06:06:06.096Z,19.42
2023-04-30T06:07:08.147Z,22.45
2023-04-30T06:08:10.119Z,24.70
2023-04-30T06:09:11.908Z,16.77
2023-04-30T06:10:13.827Z,18.67
2023-04-30T06:11:15.864Z,21.30
2023-04-30T06:12:17.691Z,17.73
2023-04-30T06:13:23.019Z,18.40
2023-04-30T06:14:25.008Z,18.85
2023-04-30T06:15:27.193Z,17.95
2023-04-30T06:16:29.689Z,18.67
2023-04-30T06:17:31.711Z,17.15
2023-04-30T06:18:34.375Z,18.05
2023-04-30T06:19:36.430Z,16.25
2023-04-30T06:20:38.390Z,19.65
2023-04-30T06:21:40.433Z,15.25
2023-04-30T06:22:43.557Z,16.63
2023-04-30T06:23:46.638Z,18.20
2023-04-30T06:24:48.513Z,16.65
2023-04-30T06:25:50.336Z,15.32
2023-04-30T06:26:52.480Z,15.80
2023-04-30T06:27:54.527Z,17.55
2023-04-30T06:28:58.132Z,15.27
2023-04-30T06:30:01.253Z,12.35
2023-04-30T06:31:04.070Z,13.77
2023-04-30T06:32:08.542Z,11.20
2023-04-30T06:33:10.960Z,12.18
2023-04-30T06:34:14.140Z,13.10
2023-04-30T06:35:16.120Z,13.68
2023-04-30T06:36:18.905Z,10.50
2023-04-30T06:37:21.069Z,15.65
2023-04-30T06:38:23.200Z,13.15
2023-04-30T06:39:25.568Z,12.48
2023-04-30T06:40:27.680Z,11.43
2023-04-30T06:41:29.678Z,10.90
2023-04-30T06:42:35.371Z,12.10
2023-04-30T06:43:38.409Z,14.80
2023-04-30T06:44:41.585Z,9.73
2023-04-30T06:45:44.030Z,12.73
2023-04-30T06:46:46.019Z,11.10
2023-04-30T06:47:50.530Z,10.93
2023-04-30T06:48:52.805Z,8.57
2023-04-30T06:49:58.918Z,10.98
2023-04-30T06:51:03.357Z,10.05
2023-04-30T06:52:05.454Z,9.55
2023-04-30T06:53:08.384Z,9.25
2023-04-30T06:54:32.820Z,9.43
2023-04-30T06:55:36.778Z,9.35
2023-04-30T06:56:40.098Z,9.80
2023-04-30T07:00:23.154Z,7.85
2023-04-30T07:01:26.993Z,11.10
2023-04-30T07:02:37.720Z,8.35
2023-04-30T07:06:27.558Z,11.10
2023-04-30T07:08:50.967Z,13.18
2023-04-30T07:10:18.916Z,8.00
2023-04-30T07:11:20.919Z,8.30
2023-04-30T07:12:23.706Z,8.27
2023-04-30T07:13:26.332Z,12.35
2023-04-30T07:15:05.309Z,8.10
2023-04-30T07:16:44.308Z,7.05
2023-04-30T07:17:47.085Z,11.32
2023-04-30T07:22:46.363Z,8.88
2023-04-30T12:45:57.206Z,6.57
2023-04-30T14:27:52.733Z,12.05
2023-04-30T14:29:14.781Z,11.48
2023-04-30T14:31:24.704Z,12.38
2023-04-30T14:33:18.407Z,10.93
2023-04-30T14:35:55.565Z,12.75
2023-04-30T14:52:10.017Z,12.30
2023-04-30T14:54:25.772Z,12.63
2023-04-30T14:59:15.454Z,12.02
2023-04-30T15:03:50.377Z,9.10
2023-04-30T15:05:28.397Z,9.82
2023-04-30T15:06:34.021Z,8.85
2023-04-30T15:07:40.084Z,9.45
2023-04-30T15:08:44.660Z,9.90
2023-04-30T15:09:56.326Z,10.27
2023-04-30T15:13:11.869Z,7.22
2023-04-30T15:14:26.134Z,9.02
2023-04-30T15:16:26.915Z,9.43
2023-04-30T15:17:30.092Z,9.60
2023-04-30T15:18:35.441Z,8.88
2023-04-30T15:19:40.657Z,10.10
2023-04-30T15:21:34.352Z,8.38
2023-04-30T15:22:37.407Z,12.95
2023-04-30T15:23:41.300Z,7.55
2023-04-30T15:24:44.889Z,7.68
2023-04-30T15:25:49.579Z,9.02
2023-04-30T15:26:54.825Z,10.63
2023-04-30T15:37:35.515Z,8.93
2023-04-30T15:39:07.287Z,13.82
2023-04-30T15:41:01.715Z,8.77
2023-04-30T15:42:09.651Z,9.90
2023-04-30T15:43:15.608Z,11.27
2023-04-30T15:44:20.825Z,11.40
2023-04-30T15:46:44.457Z,11.65
2023-04-30T15:47:48.684Z,14.55
2023-04-30T15:48:54.429Z,12.63
2023-04-30T15:50:01.852Z,11.32
2023-04-30T15:51:09.425Z,12.55
2023-04-30T15:52:13.907Z,7.22
2023-04-30T15:53:16.920Z,12.45
2023-04-30T15:56:05.962Z,10.63
2023-04-30T15:57:09.558Z,10.77
2023-04-30T15:58:13.909Z,10.60
2023-04-30T15:59:19.566Z,9.48
2023-04-30T16:01:16.479Z,12.48
2023-04-30T16:02:20.580Z,9.88
2023-04-30T16:03:26.875Z,8.77
2023-04-30T16:04:30.127Z,8.52
2023-04-30T16:05:35.488Z,12.52
2023-04-30T16:06:39.019Z,10.20
2023-04-30T16:07:47.589Z,13.32
2023-04-30T16:08:54.729Z,8.63
2023-04-30T16:10:02.779Z,8.70
2023-04-30T16:11:15.759Z,11.07
2023-04-30T16:13:08.262Z,9.15
2023-04-30T16:14:14.102Z,10.35
2023-04-30T16:15:17.970Z,11.45
2023-04-30T16:16:20.044Z,7.80
2023-04-30T16:17:22.439Z,12.38
2023-04-30T16:18:25.576Z,11.45
2023-04-30T16:19:28.754Z,11.05
2023-04-30T16:20:32.467Z,10.30
2023-04-30T16:21:36.628Z,12.70
2023-04-30T16:22:39.342Z,12.85
2023-04-30T16:23:41.579Z,13.23
2023-04-30T16:24:44.499Z,10.75
2023-04-30T16:25:47.071Z,11.93
2023-04-30T16:26:50.935Z,10.85
2023-04-30T16:27:55.042Z,10.02
2023-04-30T16:29:02.960Z,9.90
2023-04-30T16:30:09.809Z,10.07
2023-04-30T16:31:51.496Z,14.00
2023-04-30T16:33:02.352Z,10.88
2023-04-30T16:51:10.120Z,10.80
2023-04-30T16:52:12.650Z,14.40
2023-04-30T16:53:14.420Z,14.15
2023-04-30T16:54:16.537Z,15.05
2023-04-30T16:55:22.672Z,20.17
2023-04-30T16:56:24.947Z,16.42
2023-04-30T16:57:26.892Z,18.08
2023-04-30T16:58:28.960Z,13.70
2023-04-30T16:59:31.138Z,16.23
2023-04-30T17:00:34.910Z,13.65
2023-04-30T17:01:37.007Z,15.07
2023-04-30T17:02:41.003Z,16.33
2023-04-30T17:03:49.581Z,17.58
2023-04-30T17:08:06.772Z,13.57
2023-04-30T17:09:18.923Z,17.38
2023-04-30T17:10:32.224Z,15.10
2023-04-30T17:11:47.251Z,17.65
2023-04-30T17:13:08.217Z,18.63
2023-04-30T17:14:41.213Z,16.02
2023-04-30T17:18:59.477Z,16.35
2023-04-30T17:20:56.732Z,49.45
2023-04-30T17:26:01.360Z,19.58
2023-04-30T17:27:13.749Z,21.70
2023-04-30T17:28:31.122Z,16.35
2023-04-30T17:29:56.419Z,17.05
2023-04-30T17:35:13.334Z,13.88
2023-04-30T17:39:38.912Z,13.32
2023-04-30T17:43:07.743Z,15.57
2023-04-30T17:44:18.032Z,14.57
2023-04-30T17:45:28.565Z,13.60
2023-04-30T17:46:33.318Z,11.63
2023-04-30T17:48:15.800Z,11.63
2023-04-30T17:49:31.158Z,10.63
2023-04-30T17:52:43.936Z,11.00
2023-04-30T17:53:48.277Z,9.75
2023-04-30T17:54:57.054Z,10.35
2023-04-30T17:57:27.309Z,10.35
2023-04-30T17:59:00.693Z,10.50
2023-04-30T18:04:52.397Z,11.80
2023-04-30T18:26:20.936Z,7.47
2023-04-30T18:28:27.575Z,10.63
2023-04-30T18:36:14.739Z,11.95
2023-04-30T18:52:12.978Z,9.68
2023-04-30T18:53:19.495Z,9.90
2023-04-30T18:54:26.029Z,14.35
2023-04-30T18:55:35.399Z,12.50
2023-04-30T18:57:04.280Z,10.85
2023-04-30T18:58:11.222Z,11.90
2023-04-30T18:59:14.653Z,9.90
2023-04-30T19:00:16.885Z,10.18
2023-04-30T19:01:24.510Z,11.18
2023-04-30T19:02:26.649Z,9.80
2023-04-30T19:03:30.391Z,12.05
2023-04-30T19:04:32.542Z,10.45
2023-04-30T19:05:35.839Z,9.20
2023-04-30T19:06:38.064Z,11.35
2023-04-30T19:07:40.120Z,12.32
2023-04-30T19:08:43.657Z,12.50
2023-04-30T19:09:50.409Z,9.43
2023-04-30T19:10:53.313Z,11.43
2023-04-30T19:11:55.360Z,10.43
2023-04-30T19:12:57.335Z,10.90
2023-04-30T19:13:59.656Z,10.45
2023-04-30T19:15:12.862Z,10.80
2023-04-30T19:16:17.342Z,9.93
2023-04-30T19:17:24.588Z,12.73
2023-04-30T19:18:27.733Z,10.90
2023-04-30T19:19:31.334Z,10.48
2023-04-30T19:20:36.334Z,10.27
2023-04-30T19:21:39.499Z,10.23
2023-04-30T19:22:43.844Z,11.38
2023-04-30T19:23:51.595Z,10.75
2023-04-30T19:24:58.293Z,14.85
2023-04-30T19:26:29.502Z,11.77
2023-04-30T19:27:42.131Z,14.32
2023-04-30T19:28:48.267Z,11.35
2023-04-30T19:29:52.919Z,11.32
2023-04-30T19:31:14.771Z,10.43
2023-04-30T19:32:28.638Z,13.77
2023-04-30T19:33:39.734Z,9.57
2023-04-30T19:34:43.261Z,9.82
2023-04-30T19:35:57.607Z,11.45
2023-04-30T19:37:00.887Z,10.80
2023-04-30T19:38:06.242Z,10.38
2023-04-30T19:39:11.025Z,10.10
2023-04-30T19:40:14.670Z,10.65
2023-04-30T19:41:17.899Z,9.13
2023-04-30T19:42:19.987Z,11.50
2023-04-30T19:43:56.770Z,11.80
2023-04-30T19:45:01.369Z,9.50
2023-04-30T19:46:05.163Z,9.88
2023-04-30T19:47:08.657Z,12.88
2023-04-30T19:48:10.788Z,8.98
2023-04-30T19:49:15.512Z,12.13
2023-04-30T19:50:17.738Z,10.43
2023-04-30T19:51:22.205Z,10.60
2023-04-30T19:52:24.479Z,10.40
2023-04-30T19:53:27.690Z,11.18
2023-04-30T19:54:44.342Z,12.90
2023-04-30T19:55:49.166Z,12.20
2023-04-30T19:56:53.612Z,11.35
2023-04-30T19:57:56.152Z,9.45
2023-04-30T19:59:01.427Z,8.35
2023-04-30T20:00:08.667Z,11.15
2023-04-30T20:01:25.830Z,8.93
2023-04-30T20:02:30.365Z,9.90
2023-04-30T20:03:37.212Z,12.77
2023-04-30T20:04:41.713Z,9.60
2023-04-30T20:05:54.955Z,10.77
2023-04-30T20:07:03.264Z,10.55
2023-04-30T20:08:09.150Z,11.75
2023-04-30T20:09:22.115Z,10.20
2023-04-30T20:10:33.335Z,8.32
2023-04-30T20:13:37.933Z,9.02
2023-04-30T20:14:52.251Z,9.32
2023-04-30T20:16:19.380Z,11.20
2023-04-30T20:19:26.060Z,9.18
2023-04-30T20:20:31.098Z,11.45
2023-04-30T20:21:39.468Z,8.70
2023-04-30T20:22:42.950Z,9.88
2023-04-30T20:23:46.504Z,10.00
2023-04-30T20:24:50.734Z,9.85
2023-04-30T20:25:58.148Z,9.55
2023-04-30T20:27:07.450Z,10.40
2023-04-30T20:28:12.533Z,9.35
2023-04-30T20:29:18.581Z,10.25
2023-04-30T20:30:34.299Z,10.93
2023-04-30T20:31:38.325Z,9.98
2023-04-30T20:32:45.095Z,10.77
2023-04-30T20:33:48.928Z,9.27
2023-04-30T20:34:56.067Z,9.13
2023-04-30T20:36:02.847Z,13.23
2023-04-30T20:37:08.541Z,10.30
2023-04-30T20:38:14.501Z,9.48
2023-04-30T20:39:17.552Z,9.48
2023-04-30T20:40:21.126Z,8.80
2023-04-30T20:41:29.711Z,9.32
2023-04-30T20:42:32.729Z,11.63
2023-04-30T20:43:46.496Z,8.77
2023-04-30T20:44:52.361Z,11.00
2023-04-30T20:46:00.037Z,10.55
2023-04-30T20:47:05.642Z,9.68
2023-04-30T20:48:09.416Z,8.13
2023-04-30T20:49:17.749Z,11.27
2023-04-30T20:50:24.906Z,9.88
2023-04-30T20:51:35.303Z,8.90
2023-04-30T20:52:42.884Z,9.70
2023-04-30T20:53:47.621Z,10.02
2023-04-30T20:54:59.650Z,9.90
2023-04-30T20:56:05.449Z,7.95
2023-04-30T20:57:14.364Z,8.23
2023-04-30T20:58:21.357Z,8.73
2023-04-30T20:59:26.886Z,7.15
2023-04-30T21:00:31.289Z,8.95
2023-04-30T21:01:36.109Z,9.35
2023-04-30T21:02:39.656Z,8.00
2023-04-30T21:03:44.182Z,8.60
2023-04-30T21:04:48.503Z,9.10
2023-04-30T21:05:57.417Z,8.05
2023-04-30T21:07:08.508Z,8.70
2023-04-30T21:08:14.944Z,9.40
2023-04-30T21:09:18.963Z,8.88
2023-04-30T21:10:24.210Z,7.25
2023-04-30T21:11:34.434Z,10.70
2023-04-30T21:13:42.236Z,7.97
2023-04-30T21:14:45.471Z,9.10
2023-04-30T21:15:49.200Z,7.80
2023-04-30T21:17:00.303Z,9.82
2023-04-30T21:18:06.481Z,7.90
2023-04-30T21:19:33.159Z,10.10
2023-04-30T21:20:36.407Z,9.30
2023-04-30T21:21:43.262Z,7.82
2023-04-30T21:22:49.612Z,9.23
2023-04-30T21:23:58.166Z,9.00
2023-04-30T21:25:04.359Z,9.00
2023-04-30T21:26:13.073Z,9.70
2023-04-30T21:27:27.935Z,9.57
2023-04-30T21:28:35.189Z,8.80
2023-04-30T21:29:47.884Z,9.07
2023-04-30T21:30:54.378Z,8.68
2023-04-30T21:32:06.429Z,7.55
2023-04-30T21:33:12.511Z,8.82
2023-04-30T21:34:19.052Z,8.00
2023-04-30T21:35:24.104Z,9.02
2023-04-30T21:36:31.264Z,7.95
2023-04-30T21:37:34.986Z,8.98
2023-04-30T21:38:45.284Z,8.93
2023-04-30T21:39:50.033Z,10.35
2023-04-30T21:40:53.395Z,9.68
2023-04-30T21:41:59.276Z,12.73
2023-04-30T21:43:06.637Z,11.95
2023-04-30T21:44:12.676Z,12.30
2023-04-30T21:45:19.179Z,11.93
2023-04-30T21:46:24.699Z,12.95
2023-04-30T21:47:32.311Z,10.75
2023-04-30T21:48:41.295Z,10.68
2023-04-30T21:49:45.705Z,10.93
2023-04-30T21:50:53.263Z,10.55
2023-04-30T21:51:59.566Z,10.35
2023-04-30T21:53:04.085Z,12.05
2023-04-30T21:54:08.576Z,11.38
2023-04-30T21:55:14.358Z,11.02
2023-04-30T21:56:21.001Z,9.85
2023-04-30T21:57:28.236Z,10.90
2023-04-30T21:58:31.538Z,11.43
2023-04-30T21:59:42.225Z,10.02
2023-04-30T22:00:47.372Z,11.00
2023-04-30T22:01:56.022Z,11.15
2023-04-30T22:02:59.208Z,13.20
2023-04-30T22:04:08.943Z,9.80
2023-04-30T22:05:16.636Z,10.55
2023-04-30T22:06:27.843Z,9.30
2023-04-30T22:07:35.722Z,9.27
2023-04-30T22:08:40.375Z,9.40
2023-04-30T22:09:45.322Z,9.80
2023-04-30T22:10:50.471Z,11.68
2023-04-30T22:11:57.343Z,9.05
2023-04-30T22:13:01.812Z,10.88
2023-04-30T22:14:05.092Z,10.75
2023-04-30T22:15:09.451Z,10.40
2023-04-30T22:16:16.298Z,10.35
2023-04-30T22:17:21.058Z,14.30
2023-04-30T22:18:24.759Z,11.05
2023-04-30T22:19:28.998Z,13.07
2023-04-30T22:20:52.405Z,11.02
2023-04-30T22:22:01.387Z,10.35
2023-04-30T22:23:04.822Z,10.63
2023-04-30T22:24:08.074Z,10.07
2023-04-30T22:25:11.519Z,11.55
2023-04-30T22:26:15.758Z,11.85
2023-04-30T22:27:19.454Z,11.05
2023-04-30T22:28:54.548Z,12.55
2023-04-30T22:29:59.107Z,12.73
2023-04-30T22:31:34.348Z,11.93
2023-04-30T22:32:42.728Z,11.05
2023-04-30T22:33:46.670Z,9.10
2023-04-30T22:34:50.802Z,13.50
2023-04-30T22:35:56.237Z,11.15
2023-04-30T22:37:04.164Z,13.30
2023-04-30T22:38:08.842Z,11.80
2023-04-30T22:39:13.038Z,12.65
2023-04-30T22:40:19.327Z,12.18
2023-04-30T22:41:24.706Z,10.60
2023-04-30T22:42:36.745Z,37.38
2023-04-30T22:43:41.407Z,18.70
2023-04-30T22:44:46.442Z,13.25
2023-04-30T22:45:52.542Z,12.52
2023-04-30T22:47:27.107Z,11.47
2023-04-30T22:48:35.308Z,11.40
2023-04-30T22:49:39.143Z,12.10
2023-04-30T22:50:42.550Z,11.85
2023-04-30T22:51:46.322Z,11.18
2023-04-30T22:52:55.280Z,14.00
2023-04-30T22:53:58.952Z,11.50
2023-04-30T22:55:05.694Z,11.35
2023-04-30T22:56:10.118Z,12.85
2023-04-30T22:57:17.100Z,11.20
2023-04-30T22:58:29.987Z,10.85
2023-04-30T22:59:36.194Z,11.50
2023-04-30T23:00:41.359Z,13.15
2023-04-30T23:01:45.227Z,10.98
2023-04-30T23:02:56.349Z,10.98
2023-04-30T23:04:00.663Z,11.07
2023-04-30T23:05:08.195Z,10.57
2023-04-30T23:06:13.904Z,10.27
2023-04-30T23:07:19.024Z,12.23
2023-04-30T23:08:23.735Z,11.48
2023-04-30T23:09:30.238Z,11.15
2023-04-30T23:10:35.953Z,10.85
2023-04-30T23:11:41.175Z,12.55
2023-04-30T23:12:55.812Z,13.57
2023-04-30T23:14:02.729Z,11.48
2023-04-30T23:15:08.923Z,11.63
2023-04-30T23:16:14.744Z,11.65
2023-04-30T23:17:23.605Z,13.07
2023-04-30T23:18:36.555Z,11.50
2023-04-30T23:19:39.686Z,12.25
2023-04-30T23:20:44.910Z,11.23
2023-04-30T23:21:53.385Z,13.10
2023-04-30T23:22:57.458Z,13.25
2023-04-30T23:24:02.502Z,12.63
2023-04-30T23:25:07.117Z,12.88
2023-04-30T23:26:12.726Z,12.93
2023-04-30T23:27:21.220Z,12.90
2023-04-30T23:28:30.604Z,13.23
2023-04-30T23:29:35.658Z,13.02
2023-04-30T23:30:41.691Z,16.10
2023-04-30T23:31:45.999Z,14.73
2023-04-30T23:32:48.958Z,12.10
2023-04-30T23:33:59.029Z,14.48
2023-04-30T23:35:02.259Z,13.23
2023-04-30T23:36:06.808Z,13.75
2023-04-30T23:37:36.135Z,13.90
2023-04-30T23:38:42.956Z,13.25
2023-04-30T23:39:50.619Z,13.48
2023-04-30T23:40:56.741Z,15.10
2023-04-30T23:42:04.693Z,15.68
2023-04-30T23:43:07.878Z,13.25
2023-04-30T23:44:13.716Z,14.40
2023-04-30T23:45:17.103Z,12.43
2023-04-30T23:46:20.797Z,13.02
2023-04-30T23:47:29.241Z,13.25
2023-04-30T23:48:32.973Z,11.68
2023-04-30T23:49:48.384Z,12.48
2023-04-30T23:51:00.048Z,12.48
2023-04-30T23:52:10.016Z,11.50
2023-04-30T23:53:12.716Z,11.68
2023-04-30T23:54:16.258Z,11.88
2023-04-30T23:55:20.861Z,10.98
2023-04-30T23:56:25.385Z,12.02
2023-04-30T23:57:31.031Z,14.43
2023-04-30T23:58:43.270Z,13.02
2023-04-30T23:59:49.187Z,13.50
